Time;durP1;ratioP1;P1;durP2;ratioP2;P2;SDS_P1;SDS_P2;PMS_P1;PMS_P2;Temp;Humidity;BMP_temperature;BMP_pressure;BME280_temperature;BME280_humidity;BME280_pressure;Samples;Min_cycle;Max_cycle;Signal;HPM_P1;HPM_P2
2022/04/02 00:02:01;;;;;;;2.10;2.00;;;;;;;;;;5046526;28;20427;-63
2022/04/02 00:04:27;;;;;;;4.47;1.90;;;;;;;;;;5043744;28;20517;-61
2022/04/02 00:06:54;;;;;;;2.10;2.00;;;;;;;;;;5035657;28;20449;-62
2022/04/02 00:09:20;;;;;;;4.03;2.17;;;;;;;;;;5035538;28;20505;-63
2022/04/02 00:11:46;;;;;;;7.23;1.80;;;;;;;;;;5053317;28;20422;-62
2022/04/02 00:14:13;;;;;;;1.97;1.93;;;;;;;;;;5052816;28;20428;-62
2022/04/02 00:16:40;;;;;;;1.83;1.63;;;;;;;;;;5051398;28;20427;-63
2022/04/02 00:19:06;;;;;;;2.30;2.20;;;;;;;;;;5049668;28;20932;-62
2022/04/02 00:21:32;;;;;;;2.87;1.80;;;;;;;;;;5044593;28;20423;-62
2022/04/02 00:23:58;;;;;;;2.60;1.97;;;;;;;;;;5053676;28;20482;-62
2022/04/02 00:26:24;;;;;;;2.03;1.87;;;;;;;;;;5035444;28;20420;-62
2022/04/02 00:28:51;;;;;;;3.03;1.93;;;;;;;;;;5053780;28;20438;-62
2022/04/02 00:31:18;;;;;;;1.80;1.80;;;;;;;;;;5035408;28;20423;-62
2022/04/02 00:33:45;;;;;;;1.63;1.53;;;;;;;;;;5035813;28;20463;-62
2022/04/02 00:36:11;;;;;;;1.60;1.60;;;;;;;;;;5038729;28;20508;-62
2022/04/02 00:38:39;;;;;;;5.30;1.90;;;;;;;;;;5036319;28;20424;-62
2022/04/02 00:41:06;;;;;;;2.20;2.20;;;;;;;;;;5053823;28;20416;-62
2022/04/02 00:43:33;;;;;;;1.30;1.30;;;;;;;;;;5037420;28;20499;-62
2022/04/02 00:46:01;;;;;;;1.67;1.57;;;;;;;;;;5033363;28;20430;-62
2022/04/02 00:48:27;;;;;;;2.70;2.60;;;;;;;;;;5051216;28;20440;-62
2022/04/02 00:50:58;;;;;;;2.87;1.87;;;;;;;;;;5032334;28;20445;-62
2022/04/02 00:53:25;;;;;;;3.43;2.27;;;;;;;;;;5051077;28;20487;-62
2022/04/02 00:55:51;;;;;;;3.77;2.43;;;;;;;;;;5052719;28;20419;-63
2022/04/02 00:58:17;;;;;;;2.80;2.50;;;;;;;;;;5052043;28;20423;-63
2022/04/02 01:00:44;;;;;;;2.00;2.00;;;;;;;;;;5051029;28;20511;-62
2022/04/02 01:03:16;;;;;;;4.17;2.50;;;;;;;;;;5051383;28;20439;-63
2022/04/02 01:05:42;;;;;;;4.00;2.67;;;;;;;;;;5051008;28;20435;-62
2022/04/02 01:08:08;;;;;;;2.20;2.00;;;;;;;;;;5047580;28;20424;-62
2022/04/02 01:10:41;;;;;;;2.63;2.00;;;;;;;;;;5041575;28;20431;-62
2022/04/02 01:13:08;;;;;;;2.93;2.10;;;;;;;;;;5050788;28;20828;-62
2022/04/02 01:15:34;;;;;;;2.53;2.43;;;;;;;;;;5050876;28;20510;-63
2022/04/02 01:18:00;;;;;;;1.87;1.77;;;;;;;;;;5050530;28;20463;-62
2022/04/02 01:20:29;;;;;;;3.57;2.17;;;;;;;;;;5050932;28;20431;-62
2022/04/02 01:22:55;;;;;;;1.93;1.83;;;;;;;;;;5050941;28;20430;-63
2022/04/02 01:25:21;;;;;;;4.40;2.17;;;;;;;;;;5032499;28;20994;-62
2022/04/02 01:27:47;;;;;;;1.87;1.77;;;;;;;;;;5050507;28;20424;-62
2022/04/02 01:30:14;;;;;;;2.23;2.13;;;;;;;;;;5034517;28;20522;-62
2022/04/02 01:32:41;;;;;;;2.37;2.30;;;;;;;;;;5036858;28;20435;-63
2022/04/02 01:35:08;;;;;;;2.27;2.07;;;;;;;;;;5036892;28;20774;-62
2022/04/02 01:37:35;;;;;;;3.90;2.43;;;;;;;;;;5054715;28;20462;-62
2022/04/02 01:40:02;;;;;;;2.50;2.30;;;;;;;;;;5054740;28;20472;-61
2022/04/02 01:42:29;;;;;;;3.13;2.57;;;;;;;;;;5045499;28;20444;-62
2022/04/02 01:44:55;;;;;;;3.60;2.00;;;;;;;;;;5054463;28;20427;-63
2022/04/02 01:47:21;;;;;;;6.33;2.17;;;;;;;;;;5054602;28;20554;-63
2022/04/02 01:49:48;;;;;;;1.87;1.77;;;;;;;;;;5054486;28;20419;-63
2022/04/02 01:52:16;;;;;;;5.47;2.87;;;;;;;;;;5036596;28;20438;-63
2022/04/02 01:54:42;;;;;;;2.23;2.13;;;;;;;;;;5054487;28;20477;-63
2022/04/02 01:57:08;;;;;;;2.90;2.73;;;;;;;;;;5048598;28;20428;-62
2022/04/02 01:59:34;;;;;;;2.80;2.33;;;;;;;;;;5044749;28;20428;-62
2022/04/02 02:02:00;;;;;;;3.40;3.10;;;;;;;;;;5054246;28;20502;-62
2022/04/02 02:04:27;;;;;;;6.00;2.43;;;;;;;;;;5036228;28;20578;-62
2022/04/02 02:06:53;;;;;;;4.83;2.80;;;;;;;;;;5054149;28;20435;-62
2022/04/02 02:09:19;;;;;;;4.60;1.90;;;;;;;;;;5054079;28;20431;-62
2022/04/02 02:11:45;;;;;;;2.57;2.40;;;;;;;;;;5053993;28;20498;-62
2022/04/02 02:14:11;;;;;;;3.13;2.10;;;;;;;;;;5052977;28;20517;-62
2022/04/02 02:16:37;;;;;;;2.47;2.37;;;;;;;;;;5053657;28;20423;-62
2022/04/02 02:19:03;;;;;;;2.47;2.37;;;;;;;;;;5053910;28;20423;-62
2022/04/02 02:21:29;;;;;;;2.57;2.40;;;;;;;;;;5053402;28;20470;-62
2022/04/02 02:23:56;;;;;;;5.30;2.40;;;;;;;;;;5053313;28;20905;-62
2022/04/02 02:26:22;;;;;;;3.30;2.67;;;;;;;;;;5053266;28;20925;-62
2022/04/02 02:28:48;;;;;;;2.20;2.10;;;;;;;;;;5053505;28;20447;-63
2022/04/02 02:31:14;;;;;;;2.70;2.40;;;;;;;;;;5045834;28;20545;-62
2022/04/02 02:36:25;;;;;;;3.60;2.60;;;;;;;;;;5053605;28;20495;-62
2022/04/02 02:38:52;;;;;;;3.63;1.87;;;;;;;;;;5052985;28;20422;-62
2022/04/02 02:41:18;;;;;;;2.60;2.23;;;;;;;;;;5051819;28;20420;-62
2022/04/02 02:43:44;;;;;;;2.37;2.17;;;;;;;;;;5053454;28;20450;-62
2022/04/02 02:46:14;;;;;;;2.90;2.67;;;;;;;;;;5035446;28;20428;-62
2022/04/02 02:48:40;;;;;;;4.90;2.40;;;;;;;;;;5044430;28;20530;-62
2022/04/02 02:51:06;;;;;;;2.50;2.33;;;;;;;;;;5043898;28;20490;-62
2022/04/02 02:53:32;;;;;;;4.53;2.40;;;;;;;;;;5044849;28;20490;-62
2022/04/02 02:55:58;;;;;;;2.67;2.47;;;;;;;;;;5053114;28;20932;-62
2022/04/02 02:58:24;;;;;;;2.73;2.60;;;;;;;;;;5053182;28;20415;-62
2022/04/02 03:00:50;;;;;;;3.63;2.40;;;;;;;;;;5053195;28;20916;-62
2022/04/02 03:03:16;;;;;;;2.43;2.33;;;;;;;;;;5051032;28;20846;-62
2022/04/02 03:05:43;;;;;;;3.80;2.80;;;;;;;;;;5046408;28;20478;-62
2022/04/02 03:08:09;;;;;;;2.47;2.37;;;;;;;;;;5052864;28;20433;-62
2022/04/02 03:10:35;;;;;;;2.97;2.10;;;;;;;;;;5052791;28;20416;-62
2022/04/02 03:13:01;;;;;;;2.70;2.57;;;;;;;;;;5052807;28;20455;-62
2022/04/02 03:15:27;;;;;;;4.07;2.13;;;;;;;;;;5034871;28;20438;-62
2022/04/02 03:17:54;;;;;;;2.50;2.30;;;;;;;;;;5052672;28;20475;-62
2022/04/02 03:20:21;;;;;;;4.73;2.30;;;;;;;;;;5052750;28;20446;-62
2022/04/02 03:22:48;;;;;;;3.17;2.20;;;;;;;;;;5034286;28;20809;-62
2022/04/02 03:25:23;;;;;;;3.33;2.23;;;;;;;;;;5052836;28;20419;-62
2022/04/02 03:27:49;;;;;;;2.77;2.57;;;;;;;;;;5034791;28;20442;-62
2022/04/02 03:30:16;;;;;;;4.83;2.80;;;;;;;;;;5052628;28;20889;-62
2022/04/02 03:32:43;;;;;;;1.87;1.80;;;;;;;;;;5052070;28;20427;-61
2022/04/02 03:35:10;;;;;;;2.53;2.40;;;;;;;;;;5051979;28;20529;-61
2022/04/02 03:37:37;;;;;;;2.10;2.00;;;;;;;;;;5049087;28;20430;-61
2022/04/02 03:40:05;;;;;;;4.67;2.40;;;;;;;;;;5048366;28;20419;-61
2022/04/02 03:42:32;;;;;;;2.20;2.20;;;;;;;;;;5034689;28;20820;-62
2022/04/02 03:44:58;;;;;;;2.20;1.90;;;;;;;;;;5052363;28;20486;-61
2022/04/02 03:47:24;;;;;;;2.33;2.13;;;;;;;;;;5052137;28;20431;-60
2022/04/02 03:49:53;;;;;;;2.50;2.40;;;;;;;;;;5051758;28;20454;-62
2022/04/02 03:52:20;;;;;;;2.70;2.60;;;;;;;;;;5051920;28;20419;-62
2022/04/02 03:54:46;;;;;;;2.57;2.37;;;;;;;;;;5051990;28;20475;-61
2022/04/02 03:57:13;;;;;;;2.10;2.00;;;;;;;;;;5033417;28;20431;-61
2022/04/02 03:59:40;;;;;;;2.47;2.37;;;;;;;;;;5034031;28;20442;-61
2022/04/02 04:02:07;;;;;;;2.10;2.00;;;;;;;;;;5051633;28;20416;-61
2022/04/02 04:04:33;;;;;;;2.37;2.00;;;;;;;;;;5043171;28;20427;-61
2022/04/02 04:07:00;;;;;;;2.67;2.47;;;;;;;;;;5051397;28;20456;-61
2022/04/02 04:09:26;;;;;;;3.07;2.30;;;;;;;;;;5050372;28;20423;-61
2022/04/02 04:11:52;;;;;;;1.70;1.70;;;;;;;;;;5051096;28;20416;-60
2022/04/02 04:14:19;;;;;;;2.60;2.40;;;;;;;;;;5042150;28;20464;-61
2022/04/02 04:16:46;;;;;;;1.93;1.83;;;;;;;;;;5051598;28;20988;-61
2022/04/02 04:19:12;;;;;;;6.10;2.07;;;;;;;;;;5051683;28;20530;-61
2022/04/02 04:21:38;;;;;;;2.60;2.40;;;;;;;;;;5051644;28;20766;-61
2022/04/02 04:24:04;;;;;;;2.93;1.90;;;;;;;;;;5051547;28;20428;-61
2022/04/02 04:26:30;;;;;;;2.70;2.60;;;;;;;;;;5051432;28;20423;-62
2022/04/02 04:28:56;;;;;;;4.50;2.67;;;;;;;;;;5050752;28;20436;-61
2022/04/02 04:31:23;;;;;;;2.30;2.20;;;;;;;;;;5043313;28;20422;-61
2022/04/02 04:33:49;;;;;;;1.90;1.80;;;;;;;;;;5051290;28;20467;-61
2022/04/02 04:36:16;;;;;;;2.10;2.00;;;;;;;;;;5033609;28;20465;-61
2022/04/02 04:38:43;;;;;;;4.70;3.03;;;;;;;;;;5051450;28;21030;-61
2022/04/02 04:41:09;;;;;;;3.47;2.10;;;;;;;;;;5051179;28;20415;-61
2022/04/02 04:43:35;;;;;;;2.53;1.93;;;;;;;;;;5051284;28;20506;-61
2022/04/02 04:46:05;;;;;;;2.73;2.63;;;;;;;;;;5050443;28;20447;-61
2022/04/02 04:48:31;;;;;;;2.10;2.00;;;;;;;;;;5033306;28;21081;-61
2022/04/02 04:50:57;;;;;;;3.40;2.33;;;;;;;;;;5051181;28;20435;-62
2022/04/02 04:53:23;;;;;;;2.73;2.37;;;;;;;;;;5050748;28;20468;-61
2022/04/02 04:55:49;;;;;;;3.20;2.60;;;;;;;;;;5050998;28;20415;-61
2022/04/02 04:58:15;;;;;;;3.57;2.53;;;;;;;;;;5032895;28;20493;-61
2022/04/02 05:00:42;;;;;;;7.53;2.60;;;;;;;;;;5045281;28;20486;-61
2022/04/02 05:03:11;;;;;;;3.77;3.30;;;;;;;;;;5047831;28;20424;-61
2022/04/02 05:05:38;;;;;;;2.97;2.40;;;;;;;;;;5035767;28;20477;-61
2022/04/02 05:08:05;;;;;;;2.23;2.13;;;;;;;;;;5054633;28;20427;-61
2022/04/02 05:10:31;;;;;;;3.77;2.70;;;;;;;;;;5055207;28;20431;-61
2022/04/02 05:12:57;;;;;;;3.03;2.73;;;;;;;;;;5055040;28;20465;-61
2022/04/02 05:15:23;;;;;;;2.30;1.93;;;;;;;;;;5052908;28;20816;-61
2022/04/02 05:17:49;;;;;;;2.53;2.43;;;;;;;;;;5049051;28;20455;-61
2022/04/02 05:20:15;;;;;;;2.63;2.47;;;;;;;;;;5055040;28;20427;-61
2022/04/02 05:22:42;;;;;;;2.47;2.37;;;;;;;;;;5037008;28;20431;-61
2022/04/02 05:25:08;;;;;;;2.83;2.67;;;;;;;;;;5054847;28;20818;-61
2022/04/02 05:27:34;;;;;;;2.43;2.33;;;;;;;;;;5036904;28;20505;-61
2022/04/02 05:30:00;;;;;;;4.03;2.97;;;;;;;;;;5054738;28;20427;-61
2022/04/02 05:32:28;;;;;;;2.47;2.37;;;;;;;;;;5045882;28;20439;-61
2022/04/02 05:34:54;;;;;;;2.67;2.50;;;;;;;;;;5054714;28;20459;-61
2022/04/02 05:37:20;;;;;;;4.30;2.70;;;;;;;;;;5054680;28;20427;-61
2022/04/02 05:39:46;;;;;;;4.27;2.87;;;;;;;;;;5054628;28;20423;-61
2022/04/02 05:42:13;;;;;;;3.67;3.10;;;;;;;;;;5036741;28;20467;-61
2022/04/02 05:44:39;;;;;;;3.27;3.07;;;;;;;;;;5054413;28;20455;-61
2022/04/02 05:47:06;;;;;;;2.10;2.00;;;;;;;;;;5053518;28;20951;-61
2022/04/02 05:49:32;;;;;;;3.10;2.87;;;;;;;;;;5048105;28;20781;-61
2022/04/02 05:51:58;;;;;;;4.03;2.83;;;;;;;;;;5054343;28;20438;-61
2022/04/02 05:54:25;;;;;;;3.20;2.07;;;;;;;;;;5054190;28;20459;-62
2022/04/02 05:56:52;;;;;;;3.93;3.60;;;;;;;;;;5054409;28;20461;-62
2022/04/02 05:59:18;;;;;;;3.57;2.83;;;;;;;;;;5053807;28;20518;-61
2022/04/02 06:01:44;;;;;;;2.50;2.30;;;;;;;;;;5053016;28;20423;-61
2022/04/02 06:04:10;;;;;;;3.47;2.70;;;;;;;;;;5048911;28;20571;-61
2022/04/02 06:06:37;;;;;;;2.43;2.33;;;;;;;;;;5051876;28;20895;-64
2022/04/02 06:09:03;;;;;;;2.60;2.37;;;;;;;;;;5049531;28;20534;-59
2022/04/02 06:11:30;;;;;;;6.10;3.07;;;;;;;;;;5054225;28;20470;-60
2022/04/02 06:13:56;;;;;;;2.60;2.40;;;;;;;;;;5051442;28;20988;-52
2022/04/02 06:16:23;;;;;;;3.30;2.63;;;;;;;;;;5039480;28;20435;-55
2022/04/02 06:18:49;;;;;;;2.87;2.23;;;;;;;;;;5050080;28;20485;-56
2022/04/02 06:21:15;;;;;;;6.33;2.47;;;;;;;;;;5055370;28;20427;-56
2022/04/02 06:23:42;;;;;;;2.93;2.00;;;;;;;;;;5061011;28;20979;-56
2022/04/02 06:26:09;;;;;;;2.70;2.50;;;;;;;;;;5052070;28;20430;-55
2022/04/02 06:28:37;;;;;;;4.37;2.77;;;;;;;;;;5047339;28;20960;-58
2022/04/02 06:31:03;;;;;;;3.10;2.87;;;;;;;;;;5038075;28;20440;-59
2022/04/02 06:33:29;;;;;;;2.60;2.50;;;;;;;;;;5045423;28;20452;-56
2022/04/02 06:35:55;;;;;;;3.03;2.73;;;;;;;;;;5048432;28;20493;-58
2022/04/02 06:38:21;;;;;;;5.10;3.20;;;;;;;;;;5060630;28;20509;-56
2022/04/02 06:40:47;;;;;;;3.23;3.03;;;;;;;;;;5053058;28;20416;-56
2022/04/02 06:43:13;;;;;;;4.00;2.50;;;;;;;;;;5049071;28;20485;-58
2022/04/02 06:45:39;;;;;;;4.83;2.47;;;;;;;;;;5035284;28;20431;-57
2022/04/02 06:48:05;;;;;;;2.80;2.70;;;;;;;;;;5050911;28;20432;-57
2022/04/02 06:50:32;;;;;;;2.87;2.67;;;;;;;;;;5040408;28;20432;-56
2022/04/02 06:52:58;;;;;;;5.37;2.37;;;;;;;;;;5038629;28;22845;-55
2022/04/02 06:55:24;;;;;;;3.57;2.80;;;;;;;;;;5035577;28;20515;-53
2022/04/02 06:57:54;;;;;;;3.73;2.23;;;;;;;;;;5041247;28;20921;-54
2022/04/02 07:00:21;;;;;;;2.80;2.60;;;;;;;;;;5044345;28;20431;-55
2022/04/02 07:02:48;;;;;;;2.57;2.40;;;;;;;;;;5041584;28;20433;-56
2022/04/02 07:05:15;;;;;;;3.67;2.50;;;;;;;;;;5026639;28;20492;-57
2022/04/02 07:07:41;;;;;;;19.20;4.23;;;;;;;;;;5042675;28;20466;-57
2022/04/02 07:10:08;;;;;;;11.73;3.63;;;;;;;;;;5040802;28;20427;-58
2022/04/02 07:12:35;;;;;;;2.37;2.27;;;;;;;;;;5048279;28;20427;-57
2022/04/02 07:15:01;;;;;;;5.13;2.40;;;;;;;;;;5020964;28;20475;-56
2022/04/02 07:17:27;;;;;;;2.70;2.50;;;;;;;;;;5032902;28;20537;-55
2022/04/02 07:19:57;;;;;;;3.10;2.83;;;;;;;;;;5051807;28;20777;-56
2022/04/02 07:22:23;;;;;;;2.60;2.40;;;;;;;;;;5052032;28;20415;-56
2022/04/02 07:24:53;;;;;;;2.73;2.53;;;;;;;;;;5046425;28;20447;-55
2022/04/02 07:27:23;;;;;;;2.57;2.47;;;;;;;;;;5033410;28;20442;-57
2022/04/02 07:29:52;;;;;;;2.53;2.40;;;;;;;;;;5051678;28;20419;-57
2022/04/02 07:32:18;;;;;;;2.10;2.00;;;;;;;;;;5034058;28;20431;-57
2022/04/02 07:34:44;;;;;;;2.70;2.60;;;;;;;;;;5026835;28;20462;-56
2022/04/02 07:37:10;;;;;;;2.40;2.30;;;;;;;;;;5038028;28;20501;-56
2022/04/02 07:39:42;;;;;;;3.30;3.10;;;;;;;;;;5039130;28;20821;-57
2022/04/02 07:42:11;;;;;;;3.90;2.77;;;;;;;;;;5034723;28;20917;-56
2022/04/02 07:44:43;;;;;;;2.50;2.40;;;;;;;;;;5036401;28;20436;-56
2022/04/02 07:47:13;;;;;;;2.20;2.10;;;;;;;;;;5040921;28;20442;-56
2022/04/02 07:49:41;;;;;;;2.90;2.70;;;;;;;;;;5019307;28;20455;-56
2022/04/02 07:52:08;;;;;;;3.87;3.47;;;;;;;;;;5035124;28;20991;-56
2022/04/02 07:54:39;;;;;;;3.63;2.43;;;;;;;;;;5031597;28;20475;-57
2022/04/02 07:57:08;;;;;;;2.23;2.13;;;;;;;;;;5032273;28;20436;-56
2022/04/02 07:59:37;;;;;;;2.63;2.53;;;;;;;;;;5018406;28;20836;-56
2022/04/02 08:02:04;;;;;;;3.63;2.63;;;;;;;;;;5021892;28;20478;-55
2022/04/02 08:04:30;;;;;;;3.13;2.50;;;;;;;;;;5032231;28;21040;-55
2022/04/02 08:06:58;;;;;;;3.07;2.67;;;;;;;;;;5020465;28;21020;-56
2022/04/02 08:09:25;;;;;;;3.00;2.80;;;;;;;;;;5040261;28;20503;-56
2022/04/02 08:11:52;;;;;;;3.13;2.93;;;;;;;;;;5020856;28;20423;-54
2022/04/02 08:14:18;;;;;;;2.40;2.30;;;;;;;;;;5046670;28;20961;-57
2022/04/02 08:16:44;;;;;;;2.77;2.67;;;;;;;;;;5034082;28;20432;-57
2022/04/02 08:19:11;;;;;;;5.10;2.50;;;;;;;;;;5022987;28;20478;-58
2022/04/02 08:21:38;;;;;;;2.90;2.80;;;;;;;;;;5020805;28;20419;-57
2022/04/02 08:24:04;;;;;;;4.50;3.00;;;;;;;;;;5027222;28;20467;-54
2022/04/02 08:26:30;;;;;;;2.60;2.43;;;;;;;;;;5046186;28;20937;-55
2022/04/02 08:29:13;;;;;;;4.30;2.97;;;;;;;;;;5032216;28;20462;-56
2022/04/02 08:31:40;;;;;;;6.60;3.00;;;;;;;;;;5050506;28;20427;-53
2022/04/02 08:34:15;;;;;;;3.37;2.40;;;;;;;;;;5033397;28;20639;-54
2022/04/02 08:36:47;;;;;;;2.17;2.17;;;;;;;;;;5045704;28;20415;-56
2022/04/02 08:39:22;;;;;;;2.83;2.60;;;;;;;;;;5053002;28;20458;-68
2022/04/02 08:42:04;;;;;;;2.63;2.53;;;;;;;;;;5048721;28;20593;-57
2022/04/02 08:44:49;;;;;;;2.50;2.30;;;;;;;;;;5049765;28;20447;-58
2022/04/02 08:47:30;;;;;;;4.53;2.70;;;;;;;;;;5024824;28;20431;-51
2022/04/02 08:49:59;;;;;;;2.97;2.73;;;;;;;;;;5039648;28;20527;-56
2022/04/02 08:52:45;;;;;;;2.87;2.67;;;;;;;;;;5040285;28;20419;-57
2022/04/02 08:55:11;;;;;;;1.90;1.90;;;;;;;;;;5049920;28;20530;-57
2022/04/02 08:57:43;;;;;;;3.00;2.40;;;;;;;;;;5048997;28;20765;-57
2022/04/02 09:00:10;;;;;;;3.47;2.70;;;;;;;;;;5049459;28;20447;-56
2022/04/02 09:02:39;;;;;;;3.93;2.53;;;;;;;;;;5030788;28;20462;-54
2022/04/02 09:05:24;;;;;;;3.00;1.90;;;;;;;;;;5041141;28;20946;-56
2022/04/02 09:07:59;;;;;;;1.63;1.63;;;;;;;;;;5044534;28;20431;-56
2022/04/02 09:10:36;;;;;;;2.30;2.20;;;;;;;;;;5049440;28;20450;-56
2022/04/02 09:13:08;;;;;;;3.17;2.90;;;;;;;;;;5046329;28;20433;-56
2022/04/02 09:15:53;;;;;;;3.53;2.47;;;;;;;;;;5043161;28;20458;-55
2022/04/02 09:18:37;;;;;;;2.07;1.97;;;;;;;;;;5047761;28;20463;-56
2022/04/02 09:21:06;;;;;;;2.87;2.67;;;;;;;;;;5041206;28;20432;-58
2022/04/02 09:23:42;;;;;;;7.70;2.53;;;;;;;;;;5038982;28;20442;-56
2022/04/02 09:26:39;;;;;;;3.03;2.43;;;;;;;;;;5039385;28;20446;-57
2022/04/02 09:29:08;;;;;;;3.30;3.10;;;;;;;;;;5040818;28;20437;-58
2022/04/02 09:31:46;;;;;;;3.93;2.53;;;;;;;;;;5023732;28;20439;-57
2022/04/02 09:34:12;;;;;;;3.90;1.83;;;;;;;;;;5040140;28;20820;-58
2022/04/02 09:36:59;;;;;;;2.53;2.30;;;;;;;;;;5049520;28;20424;-58
2022/04/02 09:39:43;;;;;;;2.20;1.97;;;;;;;;;;5048174;28;20418;-58
2022/04/02 09:42:19;;;;;;;2.37;2.17;;;;;;;;;;5049332;28;20419;-57
2022/04/02 09:45:04;;;;;;;4.37;2.70;;;;;;;;;;5048082;28;20423;-57
2022/04/02 09:47:45;;;;;;;6.10;3.20;;;;;;;;;;5023139;28;20442;-57
2022/04/02 09:50:12;;;;;;;2.50;2.40;;;;;;;;;;5050245;28;20438;-56
2022/04/02 09:52:42;;;;;;;3.33;2.77;;;;;;;;;;5053962;28;20423;-57
2022/04/02 09:55:11;;;;;;;3.10;2.43;;;;;;;;;;5053765;28;21003;-57
2022/04/02 09:57:37;;;;;;;2.50;2.30;;;;;;;;;;5053823;28;20428;-58
2022/04/02 10:00:07;;;;;;;3.30;2.20;;;;;;;;;;5053775;28;20427;-58
2022/04/02 10:02:38;;;;;;;2.43;2.00;;;;;;;;;;5045487;28;20434;-59
2022/04/02 10:05:07;;;;;;;5.77;2.63;;;;;;;;;;5035775;28;20430;-58
2022/04/02 10:07:36;;;;;;;2.83;2.63;;;;;;;;;;5045289;28;20426;-56
2022/04/02 10:10:03;;;;;;;2.37;2.27;;;;;;;;;;5053538;28;20424;-57
2022/04/02 10:12:29;;;;;;;5.90;2.80;;;;;;;;;;5051868;28;20427;-57
2022/04/02 10:14:59;;;;;;;4.00;2.53;;;;;;;;;;5052528;28;20455;-56
2022/04/02 10:17:28;;;;;;;3.47;2.37;;;;;;;;;;5052511;28;20510;-56
2022/04/02 10:19:56;;;;;;;2.07;2.07;;;;;;;;;;5048301;28;20430;-56
2022/04/02 10:22:32;;;;;;;2.73;2.57;;;;;;;;;;5052525;28;20458;-57
2022/04/02 10:25:00;;;;;;;3.30;3.13;;;;;;;;;;5052479;28;20485;-56
2022/04/02 10:27:34;;;;;;;2.57;2.47;;;;;;;;;;5052438;28;20423;-56
2022/04/02 10:30:03;;;;;;;1.70;1.70;;;;;;;;;;5052560;28;20424;-56
2022/04/02 10:32:37;;;;;;;2.50;2.40;;;;;;;;;;5034515;28;20459;-57
2022/04/02 10:35:03;;;;;;;2.30;2.10;;;;;;;;;;5044023;28;20467;-56
2022/04/02 10:37:39;;;;;;;2.40;2.20;;;;;;;;;;5050989;28;20427;-56
2022/04/02 10:40:07;;;;;;;4.23;2.50;;;;;;;;;;5052215;28;20427;-56
2022/04/02 10:42:34;;;;;;;2.33;2.23;;;;;;;;;;5033954;28;20469;-57
2022/04/02 10:45:02;;;;;;;2.90;2.80;;;;;;;;;;5052153;28;20478;-56
2022/04/02 10:47:30;;;;;;;3.13;2.90;;;;;;;;;;5033602;28;20446;-56
2022/04/02 10:50:01;;;;;;;2.87;2.77;;;;;;;;;;5031404;28;20420;-55
2022/04/02 10:52:27;;;;;;;3.23;3.07;;;;;;;;;;5044892;28;20556;-57
2022/04/02 10:54:53;;;;;;;4.78;2.65;;;;;;;;;;5021928;28;20522;-56
2022/04/02 10:57:20;;;;;;;2.70;2.43;;;;;;;;;;5037559;28;20193;-56
2022/04/02 10:59:50;;;;;;;3.37;2.60;;;;;;;;;;5045323;28;20455;-54
2022/04/02 11:02:22;;;;;;;2.47;2.37;;;;;;;;;;5040249;28;20434;-56
2022/04/02 11:04:48;;;;;;;2.90;2.67;;;;;;;;;;5051976;28;20473;-54
2022/04/02 11:07:27;;;;;;;4.73;2.50;;;;;;;;;;5039684;28;20458;-56
2022/04/02 11:09:53;;;;;;;3.50;2.50;;;;;;;;;;5029804;28;20186;-57
2022/04/02 11:12:26;;;;;;;3.17;2.63;;;;;;;;;;5053076;28;20444;-57
2022/04/02 11:14:54;;;;;;;2.30;2.20;;;;;;;;;;5051654;28;20478;-56
2022/04/02 11:17:30;;;;;;;2.47;2.30;;;;;;;;;;5033707;28;20816;-56
2022/04/02 11:20:16;;;;;;;5.90;3.70;;;;;;;;;;5045600;28;20470;-57
2022/04/02 11:22:52;;;;;;;2.90;2.23;;;;;;;;;;5017885;28;20432;-57
2022/04/02 11:25:22;;;;;;;2.50;2.40;;;;;;;;;;5042836;28;20432;-58
2022/04/02 11:27:50;;;;;;;3.60;2.50;;;;;;;;;;5033421;28;20459;-56
2022/04/02 11:30:17;;;;;;;3.07;2.13;;;;;;;;;;5036076;28;20515;-57
2022/04/02 11:32:44;;;;;;;3.20;2.90;;;;;;;;;;5042723;28;20487;-56
2022/04/02 11:35:14;;;;;;;2.50;2.37;;;;;;;;;;5036464;28;21011;-56
2022/04/02 11:38:03;;;;;;;2.93;2.73;;;;;;;;;;5045355;28;20447;-55
2022/04/02 11:40:30;;;;;;;2.60;2.50;;;;;;;;;;5016210;28;20523;-57
2022/04/02 11:42:59;;;;;;;2.87;2.77;;;;;;;;;;5037397;28;20443;-58
2022/04/02 11:45:26;;;;;;;9.10;3.73;;;;;;;;;;5039303;28;20885;-57
2022/04/02 11:47:56;;;;;;;3.23;3.03;;;;;;;;;;5042097;28;20483;-57
2022/04/02 11:50:26;;;;;;;2.77;2.67;;;;;;;;;;5035644;28;20921;-58
2022/04/02 11:52:53;;;;;;;6.00;3.00;;;;;;;;;;5047450;28;20506;-59
2022/04/02 11:55:20;;;;;;;2.53;2.43;;;;;;;;;;5048434;28;20435;-59
2022/04/02 11:58:02;;;;;;;8.13;3.43;;;;;;;;;;5044873;28;20519;-58
2022/04/02 12:00:29;;;;;;;3.80;3.17;;;;;;;;;;5035311;28;20424;-56
2022/04/02 12:02:55;;;;;;;3.20;2.90;;;;;;;;;;5050257;28;20446;-57
2022/04/02 12:05:21;;;;;;;3.13;3.03;;;;;;;;;;5024099;28;20433;-59
2022/04/02 12:07:48;;;;;;;3.03;2.93;;;;;;;;;;5030417;28;20455;-59
2022/04/02 12:10:14;;;;;;;3.30;3.10;;;;;;;;;;5052969;28;20430;-57
2022/04/02 12:12:43;;;;;;;4.37;3.10;;;;;;;;;;5036685;28;20478;-57
2022/04/02 12:15:10;;;;;;;3.63;3.43;;;;;;;;;;5036354;28;20208;-57
2022/04/02 12:17:37;;;;;;;2.53;2.43;;;;;;;;;;5049670;28;20481;-57
2022/04/02 12:20:07;;;;;;;4.07;3.67;;;;;;;;;;5035439;28;20515;-56
2022/04/02 12:22:35;;;;;;;4.37;3.60;;;;;;;;;;5024884;28;20444;-57
2022/04/02 12:25:03;;;;;;;3.70;3.37;;;;;;;;;;5036577;28;20431;-59
2022/04/02 12:27:30;;;;;;;3.43;3.23;;;;;;;;;;5037637;28;20432;-56
2022/04/02 12:29:57;;;;;;;3.60;3.33;;;;;;;;;;5036795;28;20470;-56
2022/04/02 12:32:28;;;;;;;2.37;2.27;;;;;;;;;;5028438;28;20952;-56
2022/04/02 12:34:59;;;;;;;8.33;4.27;;;;;;;;;;5039230;28;20473;-56
2022/04/02 12:37:27;;;;;;;7.77;4.40;;;;;;;;;;5039975;28;20423;-55
2022/04/02 12:39:53;;;;;;;4.43;4.10;;;;;;;;;;5040814;28;20419;-55
2022/04/02 12:42:55;;;;;;;6.97;3.97;;;;;;;;;;5035254;28;20432;-56
2022/04/02 12:45:22;;;;;;;2.80;2.60;;;;;;;;;;4986999;28;21232;-55
2022/04/02 12:48:03;;;;;;;4.20;3.80;;;;;;;;;;5026631;28;20428;-58
2022/04/02 12:50:31;;;;;;;3.43;2.90;;;;;;;;;;5027850;28;20428;-59
2022/04/02 12:52:57;;;;;;;3.63;2.63;;;;;;;;;;5033636;28;20452;-56
2022/04/02 12:55:27;;;;;;;2.60;2.50;;;;;;;;;;5034925;28;20455;-57
2022/04/02 12:58:07;;;;;;;4.43;2.60;;;;;;;;;;5047545;28;21131;-56
2022/04/02 13:00:42;;;;;;;3.17;2.97;;;;;;;;;;5030983;28;20448;-56
2022/04/02 13:03:09;;;;;;;3.10;2.50;;;;;;;;;;5045849;28;20905;-56
2022/04/02 13:05:52;;;;;;;2.97;2.77;;;;;;;;;;5037155;28;20439;-56
2022/04/02 13:08:19;;;;;;;2.50;2.40;;;;;;;;;;5035122;28;20460;-56
2022/04/02 13:10:48;;;;;;;3.73;2.03;;;;;;;;;;5036976;28;20472;-57
2022/04/02 13:13:15;;;;;;;2.80;2.60;;;;;;;;;;5042684;28;20585;-57
2022/04/02 13:15:51;;;;;;;2.63;2.53;;;;;;;;;;5036348;28;20845;-57
2022/04/02 13:21:06;;;;;;;3.87;3.23;;;;;;;;;;5037472;28;20432;-56
2022/04/02 13:23:54;;;;;;;2.60;2.40;;;;;;;;;;5041770;28;20443;-57
2022/04/02 13:26:25;;;;;;;1.80;1.70;;;;;;;;;;5009125;28;20455;-57
2022/04/02 13:28:53;;;;;;;4.93;2.20;;;;;;;;;;5049107;28;20447;-57
2022/04/02 13:31:23;;;;;;;5.93;2.33;;;;;;;;;;5051816;28;20522;-57
2022/04/02 13:34:07;;;;;;;2.83;2.73;;;;;;;;;;5049025;28;20494;-57
2022/04/02 13:36:48;;;;;;;1.97;1.83;;;;;;;;;;5053012;28;20477;-57
2022/04/02 13:39:18;;;;;;;2.10;1.93;;;;;;;;;;5052847;28;20419;-57
2022/04/02 13:41:44;;;;;;;2.80;2.60;;;;;;;;;;5052297;28;20470;-58
2022/04/02 13:44:26;;;;;;;2.40;2.30;;;;;;;;;;5044606;28;20463;-58
2022/04/02 13:46:53;;;;;;;2.37;2.27;;;;;;;;;;5052807;28;20434;-58
2022/04/02 13:49:30;;;;;;;2.23;2.10;;;;;;;;;;5035049;28;21006;-57
2022/04/02 13:51:57;;;;;;;2.40;2.30;;;;;;;;;;5035123;28;20524;-57
2022/04/02 13:54:26;;;;;;;2.70;2.50;;;;;;;;;;5052626;28;20462;-57
2022/04/02 13:57:12;;;;;;;2.60;2.50;;;;;;;;;;5052583;28;20419;-56
2022/04/02 13:59:52;;;;;;;3.70;3.50;;;;;;;;;;5024410;28;20922;-59
2022/04/02 14:02:24;;;;;;;4.33;2.80;;;;;;;;;;5052239;28;20416;-57
2022/04/02 14:04:55;;;;;;;3.07;2.87;;;;;;;;;;5034366;28;20431;-57
2022/04/02 14:07:22;;;;;;;6.17;2.43;;;;;;;;;;5052236;28;20463;-57
2022/04/02 14:09:49;;;;;;;5.57;2.67;;;;;;;;;;5034469;28;20791;-57
2022/04/02 14:12:18;;;;;;;4.10;2.50;;;;;;;;;;5052294;28;20430;-58
2022/04/02 14:14:59;;;;;;;2.57;2.50;;;;;;;;;;5048996;28;20479;-58
2022/04/02 14:17:31;;;;;;;2.77;2.67;;;;;;;;;;5050899;28;20463;-57
2022/04/02 14:20:08;;;;;;;4.30;1.90;;;;;;;;;;5051843;28;20419;-57
2022/04/02 14:22:41;;;;;;;11.23;3.13;;;;;;;;;;5043303;28;20476;-57
2022/04/02 14:25:09;;;;;;;1.90;1.80;;;;;;;;;;5033738;28;20924;-57
2022/04/02 14:27:35;;;;;;;2.83;2.63;;;;;;;;;;5044004;28;20419;-57
2022/04/02 14:30:09;;;;;;;2.30;2.20;;;;;;;;;;5051927;28;20585;-57
2022/04/02 14:32:53;;;;;;;1.73;1.73;;;;;;;;;;5038105;28;20465;-56
2022/04/02 14:35:25;;;;;;;2.37;2.17;;;;;;;;;;5052157;28;20458;-56
2022/04/02 14:38:01;;;;;;;2.30;2.10;;;;;;;;;;5051817;28;20416;-56
2022/04/02 14:40:42;;;;;;;1.63;1.40;;;;;;;;;;5032806;28;20845;-56
2022/04/02 14:43:26;;;;;;;4.40;1.93;;;;;;;;;;5022726;28;20993;-56
2022/04/02 14:46:07;;;;;;;2.03;1.93;;;;;;;;;;5052317;28;20419;-56
2022/04/02 14:48:42;;;;;;;1.70;1.60;;;;;;;;;;5051205;28;20431;-56
2022/04/02 14:51:23;;;;;;;1.63;1.60;;;;;;;;;;5041681;28;20539;-56
2022/04/02 14:53:49;;;;;;;2.60;2.50;;;;;;;;;;5042327;28;20451;-57
2022/04/02 14:56:44;;;;;;;2.10;1.90;;;;;;;;;;5052111;28;21254;-57
2022/04/02 14:59:29;;;;;;;1.97;1.87;;;;;;;;;;5034724;28;20423;-57
2022/04/02 15:02:07;;;;;;;2.20;2.10;;;;;;;;;;5051728;28;20882;-56